sensor_id;sensor_type;location;lat;lon;timestamp;P1;durP1;ratioP1;P2;durP2;ratioP2
64868;SDS011;51349;52.424;10.840;2022-08-25T00:03:03;7.43;;;6.72;;
64868;SDS011;51349;52.424;10.840;2022-08-25T00:08:04;6.88;;;6.20;;
64868;SDS011;51349;52.424;10.840;2022-08-25T00:13:06;7.05;;;6.00;;
64868;SDS011;51349;52.424;10.840;2022-08-25T00:18:13;8.13;;;7.32;;
64868;SDS011;51349;52.424;10.840;2022-08-25T00:23:13;6.68;;;6.07;;
64868;SDS011;51349;52.424;10.840;2022-08-25T00:28:14;7.72;;;7.03;;
64868;SDS011;51349;52.424;10.840;2022-08-25T00:33:16;7.57;;;6.97;;
64868;SDS011;51349;52.424;10.840;2022-08-25T00:38:17;8.40;;;6.95;;
64868;SDS011;51349;52.424;10.840;2022-08-25T00:43:18;8.20;;;7.25;;
64868;SDS011;51349;52.424;10.840;2022-08-25T00:48:18;8.18;;;7.28;;
64868;SDS011;51349;52.424;10.840;2022-08-25T00:53:19;8.02;;;6.82;;
64868;SDS011;51349;52.424;10.840;2022-08-25T00:58:23;8.00;;;7.22;;
64868;SDS011;51349;52.424;10.840;2022-08-25T01:03:28;8.35;;;7.55;;
64868;SDS011;51349;52.424;10.840;2022-08-25T01:08:32;9.70;;;7.47;;
64868;SDS011;51349;52.424;10.840;2022-08-25T01:13:38;7.90;;;7.13;;
64868;SDS011;51349;52.424;10.840;2022-08-25T01:18:44;8.73;;;7.93;;
64868;SDS011;51349;52.424;10.840;2022-08-25T01:23:53;9.13;;;8.02;;
64868;SDS011;51349;52.424;10.840;2022-08-25T01:28:55;8.85;;;8.00;;
64868;SDS011;51349;52.424;10.840;2022-08-25T01:34:16;8.45;;;7.60;;
64868;SDS011;51349;52.424;10.840;2022-08-25T01:39:18;9.05;;;7.85;;
64868;SDS011;51349;52.424;10.840;2022-08-25T01:44:19;9.57;;;7.95;;
64868;SDS011;51349;52.424;10.840;2022-08-25T01:49:20;8.43;;;7.70;;
64868;SDS011;51349;52.424;10.840;2022-08-25T01:54:20;8.40;;;7.70;;
64868;SDS011;51349;52.424;10.840;2022-08-25T01:59:21;9.90;;;8.32;;
64868;SDS011;51349;52.424;10.840;2022-08-25T02:04:22;9.60;;;8.70;;
64868;SDS011;51349;52.424;10.840;2022-08-25T02:09:23;9.50;;;8.48;;
64868;SDS011;51349;52.424;10.840;2022-08-25T02:14:26;10.15;;;9.13;;
64868;SDS011;51349;52.424;10.840;2022-08-25T02:19:27;10.27;;;9.43;;
64868;SDS011;51349;52.424;10.840;2022-08-25T02:24:29;10.30;;;9.32;;
64868;SDS011;51349;52.424;10.840;2022-08-25T02:29:30;9.75;;;8.95;;
64868;SDS011;51349;52.424;10.840;2022-08-25T02:34:31;9.50;;;8.70;;
64868;SDS011;51349;52.424;10.840;2022-08-25T02:39:32;9.88;;;8.88;;
64868;SDS011;51349;52.424;10.840;2022-08-25T02:44:33;11.23;;;10.10;;
64868;SDS011;51349;52.424;10.840;2022-08-25T02:49:33;10.05;;;9.15;;
64868;SDS011;51349;52.424;10.840;2022-08-25T02:54:34;9.98;;;9.18;;
64868;SDS011;51349;52.424;10.840;2022-08-25T02:59:35;10.07;;;9.20;;
64868;SDS011;51349;52.424;10.840;2022-08-25T03:04:35;11.10;;;9.95;;
64868;SDS011;51349;52.424;10.840;2022-08-25T03:09:36;10.63;;;9.63;;
64868;SDS011;51349;52.424;10.840;2022-08-25T03:14:38;11.00;;;9.38;;
64868;SDS011;51349;52.424;10.840;2022-08-25T03:19:39;9.85;;;9.05;;
64868;SDS011;51349;52.424;10.840;2022-08-25T03:24:40;10.25;;;9.35;;
64868;SDS011;51349;52.424;10.840;2022-08-25T03:29:40;11.30;;;10.20;;
64868;SDS011;51349;52.424;10.840;2022-08-25T03:34:42;10.82;;;9.93;;
64868;SDS011;51349;52.424;10.840;2022-08-25T03:39:42;12.25;;;11.10;;
64868;SDS011;51349;52.424;10.840;2022-08-25T03:44:43;12.70;;;11.52;;
64868;SDS011;51349;52.424;10.840;2022-08-25T03:49:44;11.98;;;10.88;;
64868;SDS011;51349;52.424;10.840;2022-08-25T03:54:45;11.63;;;10.52;;
64868;SDS011;51349;52.424;10.840;2022-08-25T03:59:45;12.68;;;11.43;;
64868;SDS011;51349;52.424;10.840;2022-08-25T04:04:46;12.25;;;10.50;;
64868;SDS011;51349;52.424;10.840;2022-08-25T04:09:47;13.07;;;11.88;;
64868;SDS011;51349;52.424;10.840;2022-08-25T04:14:47;13.43;;;11.00;;
64868;SDS011;51349;52.424;10.840;2022-08-25T04:19:48;13.65;;;12.18;;
64868;SDS011;51349;52.424;10.840;2022-08-25T04:24:52;14.20;;;12.80;;
64868;SDS011;51349;52.424;10.840;2022-08-25T04:29:52;13.27;;;12.00;;
64868;SDS011;51349;52.424;10.840;2022-08-25T04:34:53;15.13;;;13.52;;
64868;SDS011;51349;52.424;10.840;2022-08-25T04:39:57;12.43;;;11.13;;
64868;SDS011;51349;52.424;10.840;2022-08-25T04:44:57;12.45;;;11.25;;
64868;SDS011;51349;52.424;10.840;2022-08-25T04:50:00;13.93;;;12.43;;
64868;SDS011;51349;52.424;10.840;2022-08-25T04:55:01;14.23;;;12.73;;
64868;SDS011;51349;52.424;10.840;2022-08-25T05:00:03;13.50;;;12.20;;
64868;SDS011;51349;52.424;10.840;2022-08-25T05:05:05;14.07;;;12.60;;
64868;SDS011;51349;52.424;10.840;2022-08-25T05:10:06;13.73;;;12.35;;
64868;SDS011;51349;52.424;10.840;2022-08-25T05:15:07;14.48;;;12.82;;
64868;SDS011;51349;52.424;10.840;2022-08-25T05:20:26;15.38;;;13.27;;
64868;SDS011;51349;52.424;10.840;2022-08-25T05:25:27;18.73;;;13.10;;
64868;SDS011;51349;52.424;10.840;2022-08-25T05:30:28;17.30;;;13.88;;
64868;SDS011;51349;52.424;10.840;2022-08-25T05:35:29;21.05;;;14.68;;
64868;SDS011;51349;52.424;10.840;2022-08-25T05:40:30;17.13;;;13.20;;
64868;SDS011;51349;52.424;10.840;2022-08-25T05:45:31;17.35;;;13.27;;
64868;SDS011;51349;52.424;10.840;2022-08-25T05:50:31;17.20;;;13.85;;
64868;SDS011;51349;52.424;10.840;2022-08-25T05:55:32;19.15;;;14.45;;
64868;SDS011;51349;52.424;10.840;2022-08-25T06:00:33;16.33;;;13.60;;
64868;SDS011;51349;52.424;10.840;2022-08-25T06:05:33;16.83;;;14.30;;
64868;SDS011;51349;52.424;10.840;2022-08-25T06:10:34;15.00;;;12.80;;
64868;SDS011;51349;52.424;10.840;2022-08-25T06:15:39;17.23;;;13.95;;
64868;SDS011;51349;52.424;10.840;2022-08-25T06:20:43;17.27;;;13.68;;
64868;SDS011;51349;52.424;10.840;2022-08-25T06:25:51;22.67;;;14.13;;
64868;SDS011;51349;52.424;10.840;2022-08-25T06:30:56;16.13;;;13.52;;
64868;SDS011;51349;52.424;10.840;2022-08-25T06:36:02;31.25;;;17.55;;
64868;SDS011;51349;52.424;10.840;2022-08-25T06:41:04;30.25;;;15.77;;
64868;SDS011;51349;52.424;10.840;2022-08-25T06:46:09;21.52;;;15.02;;
64868;SDS011;51349;52.424;10.840;2022-08-25T06:51:13;19.80;;;14.15;;
64868;SDS011;51349;52.424;10.840;2022-08-25T06:56:16;17.08;;;13.80;;
64868;SDS011;51349;52.424;10.840;2022-08-25T07:01:19;15.52;;;13.73;;
64868;SDS011;51349;52.424;10.840;2022-08-25T07:06:22;17.02;;;14.98;;
64868;SDS011;51349;52.424;10.840;2022-08-25T07:11:24;16.15;;;13.30;;
64868;SDS011;51349;52.424;10.840;2022-08-25T07:16:25;14.95;;;13.35;;
64868;SDS011;51349;52.424;10.840;2022-08-25T07:21:27;18.58;;;15.90;;
64868;SDS011;51349;52.424;10.840;2022-08-25T07:26:30;17.25;;;14.50;;
64868;SDS011;51349;52.424;10.840;2022-08-25T07:31:33;15.93;;;14.32;;
64868;SDS011;51349;52.424;10.840;2022-08-25T07:36:34;14.75;;;12.70;;
64868;SDS011;51349;52.424;10.840;2022-08-25T07:41:35;13.07;;;11.57;;
64868;SDS011;51349;52.424;10.840;2022-08-25T07:46:39;12.98;;;11.60;;
64868;SDS011;51349;52.424;10.840;2022-08-25T07:51:43;13.05;;;11.13;;
64868;SDS011;51349;52.424;10.840;2022-08-25T07:56:46;12.52;;;11.23;;
64868;SDS011;51349;52.424;10.840;2022-08-25T08:01:47;12.25;;;10.68;;
64868;SDS011;51349;52.424;10.840;2022-08-25T08:06:48;12.15;;;9.60;;
64868;SDS011;51349;52.424;10.840;2022-08-25T08:11:52;10.77;;;9.73;;
64868;SDS011;51349;52.424;10.840;2022-08-25T08:16:55;9.73;;;8.93;;
64868;SDS011;51349;52.424;10.840;2022-08-25T08:22:01;10.13;;;9.13;;
64868;SDS011;51349;52.424;10.840;2022-08-25T08:27:14;10.82;;;8.38;;
64868;SDS011;51349;52.424;10.840;2022-08-25T08:32:16;9.02;;;8.20;;
64868;SDS011;51349;52.424;10.840;2022-08-25T08:37:17;10.50;;;7.97;;
64868;SDS011;51349;52.424;10.840;2022-08-25T08:52:53;7.57;;;6.82;;
64868;SDS011;51349;52.424;10.840;2022-08-25T08:57:56;9.05;;;6.82;;
64868;SDS011;51349;52.424;10.840;2022-08-25T09:03:01;7.88;;;6.55;;
64868;SDS011;51349;52.424;10.840;2022-08-25T09:08:06;9.27;;;6.95;;
64868;SDS011;51349;52.424;10.840;2022-08-25T09:29:07;11.30;;;7.20;;
64868;SDS011;51349;52.424;10.840;2022-08-25T09:34:16;10.05;;;7.88;;
64868;SDS011;51349;52.424;10.840;2022-08-25T09:39:19;8.93;;;7.97;;
64868;SDS011;51349;52.424;10.840;2022-08-25T09:44:25;9.88;;;8.10;;
64868;SDS011;51349;52.424;10.840;2022-08-25T09:49:33;9.93;;;7.50;;
64868;SDS011;51349;52.424;10.840;2022-08-25T09:54:38;13.15;;;7.53;;
64868;SDS011;51349;52.424;10.840;2022-08-25T09:59:40;9.13;;;7.65;;
64868;SDS011;51349;52.424;10.840;2022-08-25T10:04:41;10.90;;;8.23;;
64868;SDS011;51349;52.424;10.840;2022-08-25T10:09:41;11.55;;;7.60;;
64868;SDS011;51349;52.424;10.840;2022-08-25T10:14:42;8.57;;;6.70;;
64868;SDS011;51349;52.424;10.840;2022-08-25T10:19:45;9.93;;;7.60;;
64868;SDS011;51349;52.424;10.840;2022-08-25T10:24:47;10.35;;;7.80;;
64868;SDS011;51349;52.424;10.840;2022-08-25T10:35:17;12.85;;;8.45;;
64868;SDS011;51349;52.424;10.840;2022-08-25T10:40:45;10.55;;;8.30;;
64868;SDS011;51349;52.424;10.840;2022-08-25T10:46:09;9.25;;;7.45;;
64868;SDS011;51349;52.424;10.840;2022-08-25T10:56:42;9.90;;;8.02;;
64868;SDS011;51349;52.424;10.840;2022-08-25T11:08:04;11.20;;;8.00;;
64868;SDS011;51349;52.424;10.840;2022-08-25T11:18:53;8.10;;;7.28;;
64868;SDS011;51349;52.424;10.840;2022-08-25T11:29:58;10.50;;;7.78;;
64868;SDS011;51349;52.424;10.840;2022-08-25T11:35:09;11.80;;;8.15;;
64868;SDS011;51349;52.424;10.840;2022-08-25T11:45:43;9.68;;;7.47;;
64868;SDS011;51349;52.424;10.840;2022-08-25T11:51:06;12.73;;;7.45;;
64868;SDS011;51349;52.424;10.840;2022-08-25T12:12:30;9.77;;;6.88;;
64868;SDS011;51349;52.424;10.840;2022-08-25T12:17:40;8.02;;;7.07;;
64868;SDS011;51349;52.424;10.840;2022-08-25T12:22:41;11.23;;;6.82;;
64868;SDS011;51349;52.424;10.840;2022-08-25T12:43:48;9.68;;;7.18;;
64868;SDS011;51349;52.424;10.840;2022-08-25T12:59:38;7.57;;;6.82;;
64868;SDS011;51349;52.424;10.840;2022-08-25T13:15:03;12.07;;;6.93;;
64868;SDS011;51349;52.424;10.840;2022-08-25T13:20:14;7.50;;;6.70;;
64868;SDS011;51349;52.424;10.840;2022-08-25T13:25:22;12.13;;;6.75;;
64868;SDS011;51349;52.424;10.840;2022-08-25T13:30:29;9.43;;;6.15;;
64868;SDS011;51349;52.424;10.840;2022-08-25T13:35:33;8.00;;;6.47;;
64868;SDS011;51349;52.424;10.840;2022-08-25T13:40:33;10.27;;;6.38;;
64868;SDS011;51349;52.424;10.840;2022-08-25T13:45:42;7.00;;;6.40;;
64868;SDS011;51349;52.424;10.840;2022-08-25T13:50:44;8.45;;;6.25;;
64868;SDS011;51349;52.424;10.840;2022-08-25T14:16:27;6.68;;;6.05;;
64868;SDS011;51349;52.424;10.840;2022-08-25T14:21:30;6.70;;;6.10;;
64868;SDS011;51349;52.424;10.840;2022-08-25T14:26:32;10.00;;;6.40;;
64868;SDS011;51349;52.424;10.840;2022-08-25T14:31:34;9.50;;;6.28;;
64868;SDS011;51349;52.424;10.840;2022-08-25T14:36:38;11.75;;;6.40;;
64868;SDS011;51349;52.424;10.840;2022-08-25T14:41:39;8.75;;;5.93;;
64868;SDS011;51349;52.424;10.840;2022-08-25T14:46:47;7.80;;;6.03;;
64868;SDS011;51349;52.424;10.840;2022-08-25T14:51:53;7.88;;;6.22;;
64868;SDS011;51349;52.424;10.840;2022-08-25T14:56:55;7.15;;;5.60;;
64868;SDS011;51349;52.424;10.840;2022-08-25T15:01:57;6.53;;;5.90;;
64868;SDS011;51349;52.424;10.840;2022-08-25T15:06:59;7.13;;;6.43;;
64868;SDS011;51349;52.424;10.840;2022-08-25T15:12:00;6.72;;;5.72;;
64868;SDS011;51349;52.424;10.840;2022-08-25T15:17:01;6.50;;;5.90;;
64868;SDS011;51349;52.424;10.840;2022-08-25T15:22:02;6.15;;;5.53;;
64868;SDS011;51349;52.424;10.840;2022-08-25T15:27:03;8.45;;;5.97;;
64868;SDS011;51349;52.424;10.840;2022-08-25T15:32:05;9.82;;;6.53;;
64868;SDS011;51349;52.424;10.840;2022-08-25T15:37:07;8.05;;;6.78;;
64868;SDS011;51349;52.424;10.840;2022-08-25T15:42:14;9.43;;;6.30;;
64868;SDS011;51349;52.424;10.840;2022-08-25T15:47:15;8.00;;;6.50;;
64868;SDS011;51349;52.424;10.840;2022-08-25T15:52:17;11.23;;;6.60;;
64868;SDS011;51349;52.424;10.840;2022-08-25T15:57:18;7.40;;;6.75;;
64868;SDS011;51349;52.424;10.840;2022-08-25T16:02:18;7.57;;;6.88;;
64868;SDS011;51349;52.424;10.840;2022-08-25T16:07:20;11.23;;;6.53;;
64868;SDS011;51349;52.424;10.840;2022-08-25T16:12:21;8.88;;;8.15;;
64868;SDS011;51349;52.424;10.840;2022-08-25T16:17:22;8.25;;;6.80;;
64868;SDS011;51349;52.424;10.840;2022-08-25T16:22:23;10.25;;;6.57;;
64868;SDS011;51349;52.424;10.840;2022-08-25T16:27:23;8.45;;;7.10;;
64868;SDS011;51349;52.424;10.840;2022-08-25T16:32:24;9.07;;;6.43;;
64868;SDS011;51349;52.424;10.840;2022-08-25T16:37:25;8.82;;;6.70;;
64868;SDS011;51349;52.424;10.840;2022-08-25T16:42:26;9.52;;;7.00;;
64868;SDS011;51349;52.424;10.840;2022-08-25T16:47:26;8.38;;;6.80;;
64868;SDS011;51349;52.424;10.840;2022-08-25T16:52:27;8.15;;;7.10;;
64868;SDS011;51349;52.424;10.840;2022-08-25T16:57:47;13.43;;;7.22;;
64868;SDS011;51349;52.424;10.840;2022-08-25T17:02:56;14.52;;;7.13;;
64868;SDS011;51349;52.424;10.840;2022-08-25T17:07:59;9.15;;;7.00;;
64868;SDS011;51349;52.424;10.840;2022-08-25T17:13:19;9.40;;;6.80;;
64868;SDS011;51349;52.424;10.840;2022-08-25T17:18:19;13.85;;;7.32;;
64868;SDS011;51349;52.424;10.840;2022-08-25T17:23:23;12.02;;;6.47;;
64868;SDS011;51349;52.424;10.840;2022-08-25T17:28:24;9.68;;;6.70;;
64868;SDS011;51349;52.424;10.840;2022-08-25T17:33:26;16.85;;;7.18;;
64868;SDS011;51349;52.424;10.840;2022-08-25T17:38:27;15.38;;;6.88;;
64868;SDS011;51349;52.424;10.840;2022-08-25T17:43:29;14.70;;;7.13;;
64868;SDS011;51349;52.424;10.840;2022-08-25T17:48:30;13.30;;;6.95;;
64868;SDS011;51349;52.424;10.840;2022-08-25T17:53:31;11.82;;;6.47;;
64868;SDS011;51349;52.424;10.840;2022-08-25T17:58:33;12.25;;;7.40;;
64868;SDS011;51349;52.424;10.840;2022-08-25T18:03:35;11.23;;;6.85;;
64868;SDS011;51349;52.424;10.840;2022-08-25T18:08:36;10.98;;;6.80;;
64868;SDS011;51349;52.424;10.840;2022-08-25T18:13:37;12.30;;;7.43;;
64868;SDS011;51349;52.424;10.840;2022-08-25T18:18:38;9.30;;;7.13;;
64868;SDS011;51349;52.424;10.840;2022-08-25T18:23:40;11.13;;;7.00;;
64868;SDS011;51349;52.424;10.840;2022-08-25T18:28:41;8.73;;;7.82;;
64868;SDS011;51349;52.424;10.840;2022-08-25T18:33:42;10.18;;;7.40;;
64868;SDS011;51349;52.424;10.840;2022-08-25T18:38:43;12.85;;;7.95;;
64868;SDS011;51349;52.424;10.840;2022-08-25T18:44:03;8.93;;;7.15;;
64868;SDS011;51349;52.424;10.840;2022-08-25T18:49:05;12.00;;;8.35;;
64868;SDS011;51349;52.424;10.840;2022-08-25T18:54:06;8.77;;;7.82;;
64868;SDS011;51349;52.424;10.840;2022-08-25T18:59:07;11.75;;;8.82;;
64868;SDS011;51349;52.424;10.840;2022-08-25T19:04:07;8.70;;;7.80;;
64868;SDS011;51349;52.424;10.840;2022-08-25T19:09:08;13.02;;;8.55;;
64868;SDS011;51349;52.424;10.840;2022-08-25T19:14:09;9.57;;;8.55;;
64868;SDS011;51349;52.424;10.840;2022-08-25T19:19:19;11.23;;;8.20;;
64868;SDS011;51349;52.424;10.840;2022-08-25T19:24:19;11.07;;;8.50;;
64868;SDS011;51349;52.424;10.840;2022-08-25T19:29:21;10.73;;;8.90;;
64868;SDS011;51349;52.424;10.840;2022-08-25T19:34:24;12.52;;;8.25;;
64868;SDS011;51349;52.424;10.840;2022-08-25T19:39:27;11.43;;;8.40;;
64868;SDS011;51349;52.424;10.840;2022-08-25T19:44:28;14.02;;;9.10;;
64868;SDS011;51349;52.424;10.840;2022-08-25T19:49:32;10.35;;;9.05;;
64868;SDS011;51349;52.424;10.840;2022-08-25T19:54:35;11.40;;;9.40;;
64868;SDS011;51349;52.424;10.840;2022-08-25T19:59:39;10.75;;;9.18;;
64868;SDS011;51349;52.424;10.840;2022-08-25T20:04:44;13.63;;;9.18;;
64868;SDS011;51349;52.424;10.840;2022-08-25T20:09:47;10.88;;;9.70;;
64868;SDS011;51349;52.424;10.840;2022-08-25T20:14:49;10.10;;;9.10;;
64868;SDS011;51349;52.424;10.840;2022-08-25T20:19:52;13.38;;;9.77;;
64868;SDS011;51349;52.424;10.840;2022-08-25T20:24:57;10.77;;;9.65;;
64868;SDS011;51349;52.424;10.840;2022-08-25T20:30:00;13.52;;;9.48;;
64868;SDS011;51349;52.424;10.840;2022-08-25T20:35:06;11.55;;;9.45;;
64868;SDS011;51349;52.424;10.840;2022-08-25T20:40:10;10.77;;;9.63;;
64868;SDS011;51349;52.424;10.840;2022-08-25T20:45:16;13.15;;;8.88;;
64868;SDS011;51349;52.424;10.840;2022-08-25T20:50:20;11.65;;;9.50;;
64868;SDS011;51349;52.424;10.840;2022-08-25T20:55:22;14.25;;;10.27;;
64868;SDS011;51349;52.424;10.840;2022-08-25T21:00:23;10.68;;;9.60;;
64868;SDS011;51349;52.424;10.840;2022-08-25T21:05:24;11.55;;;9.15;;
64868;SDS011;51349;52.424;10.840;2022-08-25T21:10:25;15.18;;;9.75;;
64868;SDS011;51349;52.424;10.840;2022-08-25T21:15:27;14.88;;;8.93;;
64868;SDS011;51349;52.424;10.840;2022-08-25T21:20:27;10.15;;;9.13;;
64868;SDS011;51349;52.424;10.840;2022-08-25T21:25:28;13.27;;;9.00;;
64868;SDS011;51349;52.424;10.840;2022-08-25T21:30:29;12.63;;;9.65;;
64868;SDS011;51349;52.424;10.840;2022-08-25T21:35:32;11.10;;;9.82;;
64868;SDS011;51349;52.424;10.840;2022-08-25T21:40:33;14.90;;;10.30;;
64868;SDS011;51349;52.424;10.840;2022-08-25T21:45:38;12.23;;;9.90;;
64868;SDS011;51349;52.424;10.840;2022-08-25T21:50:39;11.90;;;9.38;;
64868;SDS011;51349;52.424;10.840;2022-08-25T21:55:40;12.35;;;9.70;;
64868;SDS011;51349;52.424;10.840;2022-08-25T22:00:43;11.23;;;9.23;;
64868;SDS011;51349;52.424;10.840;2022-08-25T22:05:43;14.75;;;9.95;;
64868;SDS011;51349;52.424;10.840;2022-08-25T22:10:44;12.90;;;9.95;;
64868;SDS011;51349;52.424;10.840;2022-08-25T22:15:44;12.30;;;9.57;;
64868;SDS011;51349;52.424;10.840;2022-08-25T22:20:45;11.60;;;9.80;;
64868;SDS011;51349;52.424;10.840;2022-08-25T22:25:46;15.02;;;10.30;;
64868;SDS011;51349;52.424;10.840;2022-08-25T22:30:47;11.45;;;9.55;;
64868;SDS011;51349;52.424;10.840;2022-08-25T22:35:51;12.80;;;9.80;;
64868;SDS011;51349;52.424;10.840;2022-08-25T22:40:54;12.82;;;10.23;;
64868;SDS011;51349;52.424;10.840;2022-08-25T22:46:02;11.15;;;9.63;;
64868;SDS011;51349;52.424;10.840;2022-08-25T22:56:15;10.50;;;9.48;;
64868;SDS011;51349;52.424;10.840;2022-08-25T23:01:19;10.75;;;9.65;;
64868;SDS011;51349;52.424;10.840;2022-08-25T23:06:21;10.98;;;9.85;;
64868;SDS011;51349;52.424;10.840;2022-08-25T23:11:26;16.27;;;10.20;;
64868;SDS011;51349;52.424;10.840;2022-08-25T23:16:27;12.68;;;10.40;;
64868;SDS011;51349;52.424;10.840;2022-08-25T23:21:30;12.43;;;11.10;;
64868;SDS011;51349;52.424;10.840;2022-08-25T23:26:49;15.13;;;11.20;;
64868;SDS011;51349;52.424;10.840;2022-08-25T23:31:50;11.93;;;10.73;;
64868;SDS011;51349;52.424;10.840;2022-08-25T23:36:50;11.77;;;10.15;;
64868;SDS011;51349;52.424;10.840;2022-08-25T23:41:51;12.15;;;10.70;;
64868;SDS011;51349;52.424;10.840;2022-08-25T23:46:52;11.35;;;10.15;;
64868;SDS011;51349;52.424;10.840;2022-08-25T23:51:53;15.35;;;11.48;;
64868;SDS011;51349;52.424;10.840;2022-08-25T23:56:55;14.85;;;10.88;;
